createdAt,value
2022-10-06T00:01:30.857Z,59.23
2022-10-06T00:04:00.479Z,59.58
2022-10-06T00:06:31.367Z,59.87
2022-10-06T00:09:00.902Z,59.81
2022-10-06T00:11:30.562Z,59.64
2022-10-06T00:14:00.827Z,59.88
2022-10-06T00:16:30.739Z,59.78
2022-10-06T00:19:00.203Z,60.67
2022-10-06T00:21:31.154Z,60.12
2022-10-06T00:24:00.735Z,60.51
2022-10-06T00:26:31.116Z,60.41
2022-10-06T00:29:00.729Z,60.84
2022-10-06T00:31:30.604Z,60.61
2022-10-06T00:34:00.436Z,60.18
2022-10-06T00:36:32.396Z,60.67
2022-10-06T00:39:01.946Z,60.64
2022-10-06T00:41:31.976Z,61.58
2022-10-06T00:44:01.822Z,61.10
2022-10-06T00:46:36.484Z,61.24
2022-10-06T00:49:11.308Z,61.43
2022-10-06T00:51:45.486Z,61.06
2022-10-06T00:54:15.349Z,61.83
2022-10-06T00:56:45.143Z,61.21
2022-10-06T00:59:16.370Z,61.31
2022-10-06T01:01:50.686Z,60.80
2022-10-06T01:04:21.415Z,61.92
2022-10-06T01:06:53.808Z,61.56
2022-10-06T01:09:24.698Z,60.98
2022-10-06T01:11:56.814Z,60.54
2022-10-06T01:14:26.894Z,61.00
2022-10-06T01:16:59.599Z,60.96
2022-10-06T01:19:33.521Z,60.97
2022-10-06T01:22:06.545Z,60.78
2022-10-06T01:24:37.761Z,61.32
2022-10-06T01:27:09.199Z,60.65
2022-10-06T01:29:39.032Z,61.77
2022-10-06T01:32:08.628Z,61.04
2022-10-06T01:34:38.191Z,61.06
2022-10-06T01:37:07.674Z,61.72
2022-10-06T01:39:38.554Z,61.10
2022-10-06T01:42:08.114Z,61.72
2022-10-06T01:44:37.842Z,61.18
2022-10-06T01:47:07.551Z,61.24
2022-10-06T01:49:37.048Z,61.55
2022-10-06T01:52:06.562Z,61.45
2022-10-06T01:54:36.077Z,61.64
2022-10-06T01:57:08.434Z,62.63
2022-10-06T01:59:38.046Z,61.43
2022-10-06T02:02:07.572Z,62.34
2022-10-06T02:04:37.068Z,62.23
2022-10-06T02:07:06.752Z,62.49
2022-10-06T02:09:36.377Z,62.31
2022-10-06T02:12:07.980Z,62.44
2022-10-06T02:14:37.980Z,63.40
2022-10-06T02:17:07.864Z,63.13
2022-10-06T02:19:37.498Z,62.54
2022-10-06T02:22:07.040Z,63.18
2022-10-06T02:24:36.589Z,63.05
2022-10-06T02:27:06.996Z,62.72
2022-10-06T02:29:37.935Z,62.85
2022-10-06T02:32:07.417Z,62.67
2022-10-06T02:34:36.990Z,62.63
2022-10-06T02:37:06.561Z,62.25
2022-10-06T02:39:36.340Z,62.21
2022-10-06T02:42:06.132Z,62.66
2022-10-06T02:44:36.053Z,62.91
2022-10-06T02:47:07.004Z,63.36
2022-10-06T02:49:36.560Z,62.96
2022-10-06T02:52:06.079Z,63.21
2022-10-06T02:54:36.819Z,63.11
2022-10-06T02:57:06.359Z,63.49
2022-10-06T02:59:38.033Z,62.72
2022-10-06T03:02:08.957Z,62.58
2022-10-06T03:04:38.635Z,63.13
2022-10-06T03:07:08.168Z,62.62
2022-10-06T03:09:37.761Z,62.75
2022-10-06T03:12:07.844Z,62.63
2022-10-06T03:14:37.731Z,63.19
2022-10-06T03:17:09.994Z,62.66
2022-10-06T03:19:40.134Z,63.00
2022-10-06T03:22:10.604Z,63.10
2022-10-06T03:24:40.482Z,63.82
2022-10-06T03:27:10.203Z,62.78
2022-10-06T03:29:39.752Z,63.40
2022-10-06T03:32:11.062Z,62.59
2022-10-06T03:34:40.638Z,63.43
2022-10-06T03:37:10.844Z,63.18
2022-10-06T03:39:40.389Z,63.08
2022-10-06T03:42:10.123Z,63.42
2022-10-06T03:44:39.772Z,63.32
2022-10-06T03:47:13.207Z,63.22
2022-10-06T03:49:47.391Z,63.45
2022-10-06T03:52:16.896Z,62.90
2022-10-06T03:54:46.635Z,62.70
2022-10-06T03:57:16.275Z,63.10
2022-10-06T03:59:45.861Z,63.57
2022-10-06T04:02:15.658Z,63.37
2022-10-06T04:04:45.195Z,64.17
2022-10-06T04:07:17.408Z,63.49
2022-10-06T04:09:46.972Z,63.71
2022-10-06T04:12:16.939Z,63.76
2022-10-06T04:14:46.830Z,62.77
2022-10-06T04:17:16.615Z,63.48
2022-10-06T04:19:46.286Z,63.11
2022-10-06T04:22:17.208Z,63.45
2022-10-06T04:24:47.093Z,64.28
2022-10-06T04:27:31.459Z,63.54
2022-10-06T04:30:01.124Z,62.14
2022-10-06T04:32:30.772Z,61.74
2022-10-06T04:35:01.351Z,60.95
2022-10-06T04:37:32.447Z,60.86
2022-10-06T04:40:02.186Z,60.44
2022-10-06T04:42:35.083Z,59.94
2022-10-06T04:45:05.504Z,60.25
2022-10-06T04:47:35.145Z,60.51
2022-10-06T04:50:04.856Z,60.18
2022-10-06T04:52:35.834Z,60.20
2022-10-06T04:55:06.133Z,59.82
2022-10-06T04:57:35.645Z,59.80
2022-10-06T05:00:25.234Z,59.61
2022-10-06T05:02:55.464Z,60.00
2022-10-06T05:05:26.311Z,59.66
2022-10-06T05:07:57.168Z,58.97
2022-10-06T05:10:28.557Z,58.90
2022-10-06T05:12:58.708Z,58.44
2022-10-06T05:15:29.252Z,58.55
2022-10-06T05:17:58.786Z,58.15
2022-10-06T05:20:28.318Z,57.72
2022-10-06T05:22:59.461Z,58.02
2022-10-06T05:25:29.050Z,57.18
2022-10-06T05:27:58.763Z,57.11
2022-10-06T05:30:28.386Z,57.58
2022-10-06T05:32:58.053Z,57.20
2022-10-06T05:35:27.774Z,57.79
2022-10-06T05:37:57.331Z,58.20
2022-10-06T05:40:28.453Z,58.58
2022-10-06T05:42:58.000Z,58.59
2022-10-06T05:45:27.729Z,59.03
2022-10-06T05:47:57.519Z,58.75
2022-10-06T05:50:27.302Z,58.02
2022-10-06T05:52:57.039Z,57.95
2022-10-06T05:55:28.164Z,57.65
2022-10-06T05:57:57.685Z,57.65
2022-10-06T06:00:27.262Z,57.31
2022-10-06T06:02:56.821Z,57.22
2022-10-06T06:05:26.444Z,57.20
2022-10-06T06:07:55.942Z,57.41
2022-10-06T06:10:25.664Z,57.61
2022-10-06T06:12:56.545Z,57.72
2022-10-06T06:15:43.423Z,57.38
2022-10-06T06:18:13.589Z,57.38
2022-10-06T06:20:43.276Z,57.20
2022-10-06T06:23:12.914Z,57.31
2022-10-06T06:25:45.790Z,57.20
2022-10-06T06:28:18.229Z,57.52
2022-10-06T06:30:48.036Z,57.42
2022-10-06T06:33:17.882Z,57.25
2022-10-06T06:35:47.721Z,57.34
2022-10-06T06:38:18.307Z,57.66
2022-10-06T06:40:48.311Z,57.73
2022-10-06T06:43:19.180Z,57.87
2022-10-06T06:45:48.787Z,57.55
2022-10-06T06:48:18.447Z,57.82
2022-10-06T06:50:56.419Z,57.71
2022-10-06T06:53:26.282Z,57.76
2022-10-06T06:55:55.847Z,57.45
2022-10-06T06:58:27.660Z,57.53
2022-10-06T07:01:04.925Z,57.48
2022-10-06T07:03:58.895Z,57.15
2022-10-06T07:06:28.063Z,56.83
2022-10-06T07:08:58.975Z,56.79
2022-10-06T07:11:29.717Z,56.46
2022-10-06T07:14:01.645Z,56.16
2022-10-06T07:16:50.041Z,55.66
2022-10-06T07:19:38.515Z,55.34
2022-10-06T07:22:31.013Z,55.22
2022-10-06T07:25:12.661Z,54.59
2022-10-06T07:27:43.446Z,54.25
2022-10-06T07:30:18.026Z,53.82
2022-10-06T07:32:48.359Z,53.93
2022-10-06T07:35:20.352Z,53.84
2022-10-06T07:37:50.471Z,52.91
2022-10-06T07:40:20.239Z,53.23
2022-10-06T07:42:52.054Z,52.80
2022-10-06T07:45:41.206Z,52.28
2022-10-06T07:48:14.445Z,50.50
2022-10-06T07:50:44.475Z,50.03
2022-10-06T07:53:14.239Z,50.40
2022-10-06T07:55:44.645Z,50.12
2022-10-06T07:58:15.303Z,49.11
2022-10-06T08:00:48.271Z,49.22
2022-10-06T08:03:18.910Z,49.46
2022-10-06T08:05:49.555Z,49.39
2022-10-06T08:08:19.363Z,49.33
2022-10-06T08:10:53.283Z,49.51
2022-10-06T08:13:23.427Z,49.28
2022-10-06T08:15:56.564Z,48.92
2022-10-06T08:18:44.929Z,49.07
2022-10-06T08:21:16.618Z,49.16
2022-10-06T08:23:47.048Z,49.51
2022-10-06T08:26:17.426Z,49.28
2022-10-06T08:28:47.895Z,48.74
2022-10-06T08:31:21.293Z,48.33
2022-10-06T08:33:54.367Z,48.12
2022-10-06T08:36:29.787Z,48.33
2022-10-06T08:39:01.287Z,47.43
2022-10-06T08:41:38.658Z,47.58
2022-10-06T08:44:18.664Z,47.83
2022-10-06T08:46:55.119Z,48.11
2022-10-06T08:49:26.966Z,47.53
2022-10-06T08:52:00.976Z,46.86
2022-10-06T08:54:36.508Z,47.63
2022-10-06T08:57:10.019Z,47.43
2022-10-06T08:59:39.637Z,46.61
2022-10-06T09:02:30.063Z,45.71
2022-10-06T09:05:03.919Z,46.08
2022-10-06T09:07:40.410Z,45.97
2022-10-06T09:10:21.302Z,45.40
2022-10-06T09:12:56.250Z,45.24
2022-10-06T09:15:31.168Z,45.48
2022-10-06T09:18:03.483Z,45.51
2022-10-06T09:20:36.270Z,45.45
2022-10-06T09:23:07.946Z,45.98
2022-10-06T09:25:38.884Z,45.66
2022-10-06T09:28:12.374Z,45.52
2022-10-06T09:30:43.368Z,45.26
2022-10-06T09:33:17.863Z,45.10
2022-10-06T09:36:09.366Z,44.59
2022-10-06T09:38:53.900Z,44.35
2022-10-06T09:41:25.335Z,44.58
2022-10-06T09:43:57.467Z,44.36
2022-10-06T09:46:31.389Z,45.00
2022-10-06T09:49:21.824Z,44.78
2022-10-06T09:52:01.558Z,44.38
2022-10-06T09:54:31.869Z,43.45
2022-10-06T09:57:08.175Z,44.06
2022-10-06T09:59:41.953Z,43.71
2022-10-06T10:02:30.478Z,44.00
2022-10-06T10:05:00.159Z,43.96
2022-10-06T10:07:31.741Z,43.83
2022-10-06T10:10:25.143Z,43.58
2022-10-06T10:12:56.033Z,43.97
2022-10-06T10:15:29.472Z,43.68
2022-10-06T10:18:00.129Z,43.95
2022-10-06T10:20:35.237Z,43.21
2022-10-06T10:23:23.383Z,42.77
2022-10-06T10:26:02.811Z,42.51
2022-10-06T10:28:46.952Z,41.66
2022-10-06T10:31:21.258Z,41.55
2022-10-06T10:34:05.155Z,41.21
2022-10-06T10:36:48.912Z,41.47
2022-10-06T10:39:25.463Z,41.82
2022-10-06T10:41:57.706Z,40.85
2022-10-06T10:44:30.994Z,40.69
2022-10-06T10:47:07.103Z,40.86
2022-10-06T10:49:36.856Z,40.66
2022-10-06T10:52:10.709Z,40.75
2022-10-06T10:54:45.814Z,40.77
2022-10-06T10:57:18.099Z,41.11
2022-10-06T10:59:54.946Z,40.88
2022-10-06T11:02:24.551Z,40.54
2022-10-06T11:04:59.476Z,39.89
2022-10-06T11:07:35.347Z,40.03
2022-10-06T11:10:08.417Z,39.46
2022-10-06T11:12:55.919Z,39.74
2022-10-06T11:15:34.152Z,40.61
2022-10-06T11:18:10.024Z,41.07
2022-10-06T11:20:44.068Z,40.22
2022-10-06T11:23:31.443Z,39.24
2022-10-06T11:26:09.802Z,40.08
2022-10-06T11:28:43.905Z,39.40
2022-10-06T11:31:22.669Z,39.76
2022-10-06T11:33:54.328Z,40.31
2022-10-06T11:36:29.373Z,38.92
2022-10-06T11:39:02.358Z,39.73
2022-10-06T11:41:37.289Z,40.03
2022-10-06T11:44:13.621Z,40.58
2022-10-06T11:46:45.516Z,40.37
2022-10-06T11:49:33.477Z,41.03
2022-10-06T11:52:18.140Z,40.09
2022-10-06T11:54:50.270Z,40.64
2022-10-06T11:57:37.524Z,41.79
2022-10-06T12:00:25.784Z,40.17
2022-10-06T12:03:17.981Z,40.74
2022-10-06T12:05:56.188Z,40.47
2022-10-06T12:08:36.114Z,40.26
2022-10-06T12:11:38.519Z,39.53
2022-10-06T12:17:19.095Z,40.71
2022-10-06T12:19:56.707Z,40.71
2022-10-06T12:22:28.148Z,40.00
2022-10-06T12:25:02.012Z,39.91
2022-10-06T12:27:37.107Z,39.96
2022-10-06T12:30:18.433Z,40.45
2022-10-06T12:32:51.040Z,41.35
2022-10-06T12:35:32.443Z,41.41
2022-10-06T12:38:04.935Z,40.15
2022-10-06T12:40:49.103Z,39.37
2022-10-06T12:43:30.991Z,40.18
2022-10-06T12:46:02.184Z,39.38
2022-10-06T12:48:35.389Z,40.16
2022-10-06T12:51:10.535Z,40.59
2022-10-06T12:53:45.147Z,40.89
2022-10-06T12:56:26.899Z,39.91
2022-10-06T12:58:56.545Z,39.37
2022-10-06T13:01:26.958Z,40.85
2022-10-06T13:03:56.833Z,39.73
2022-10-06T13:06:28.037Z,40.11
2022-10-06T13:09:05.765Z,40.19
2022-10-06T13:11:35.331Z,39.56
2022-10-06T13:14:09.855Z,38.73
2022-10-06T13:16:41.463Z,39.45
2022-10-06T13:19:16.379Z,39.08
2022-10-06T13:21:48.604Z,37.90
2022-10-06T13:24:20.610Z,37.93
2022-10-06T13:26:50.526Z,37.89
2022-10-06T13:29:21.920Z,38.00
2022-10-06T13:31:53.142Z,37.80
2022-10-06T13:34:28.693Z,36.90
2022-10-06T13:37:00.290Z,36.48
2022-10-06T13:39:32.018Z,35.51
2022-10-06T13:42:03.616Z,36.87
2022-10-06T13:44:36.216Z,36.56
2022-10-06T13:47:07.157Z,36.38
2022-10-06T13:49:37.950Z,35.60
2022-10-06T13:52:16.781Z,36.44
2022-10-06T13:54:55.099Z,36.13
2022-10-06T13:57:35.570Z,35.83
2022-10-06T14:00:16.431Z,36.20
2022-10-06T14:02:47.599Z,36.24
2022-10-06T14:05:26.804Z,36.07
2022-10-06T14:08:02.291Z,36.25
2022-10-06T14:10:33.575Z,35.95
2022-10-06T14:13:07.366Z,36.92
2022-10-06T14:15:40.190Z,36.14
2022-10-06T14:18:18.109Z,36.20
2022-10-06T14:20:48.408Z,36.83
2022-10-06T14:23:42.287Z,36.81
2022-10-06T14:26:12.965Z,38.05
2022-10-06T14:28:47.097Z,36.55
2022-10-06T14:31:17.157Z,36.57
2022-10-06T14:33:47.632Z,37.04
2022-10-06T14:36:19.241Z,36.47
2022-10-06T14:38:51.236Z,37.02
2022-10-06T14:41:24.774Z,36.36
2022-10-06T14:43:55.373Z,37.15
2022-10-06T14:46:26.926Z,36.58
2022-10-06T14:48:57.670Z,36.77
2022-10-06T14:51:30.103Z,37.32
2022-10-06T14:54:05.032Z,36.82
2022-10-06T14:56:36.307Z,37.24
2022-10-06T14:59:09.235Z,37.00
2022-10-06T15:01:40.096Z,37.28
2022-10-06T15:04:11.386Z,38.03
2022-10-06T15:06:58.987Z,38.08
2022-10-06T15:09:31.189Z,39.16
2022-10-06T15:12:01.246Z,38.61
2022-10-06T15:14:31.993Z,38.71
2022-10-06T15:17:02.251Z,39.08
2022-10-06T15:19:31.808Z,39.17
2022-10-06T15:22:01.700Z,38.66
2022-10-06T15:24:32.673Z,38.74
2022-10-06T15:27:23.986Z,39.84
2022-10-06T15:29:54.524Z,39.28
2022-10-06T15:32:24.392Z,39.17
2022-10-06T15:34:55.241Z,39.69
2022-10-06T15:37:24.978Z,40.34
2022-10-06T15:39:55.882Z,40.14
2022-10-06T15:42:25.701Z,40.12
2022-10-06T15:44:55.267Z,40.57
2022-10-06T15:47:24.923Z,40.95
2022-10-06T15:49:54.730Z,41.40
2022-10-06T15:52:24.481Z,40.93
2022-10-06T15:54:55.414Z,40.69
2022-10-06T15:57:25.439Z,41.65
2022-10-06T15:59:55.247Z,41.44
2022-10-06T16:02:25.448Z,41.70
2022-10-06T16:05:18.844Z,42.10
2022-10-06T16:07:48.695Z,42.62
2022-10-06T16:10:19.895Z,42.51
2022-10-06T16:12:50.070Z,42.64
2022-10-06T16:15:20.236Z,43.04
2022-10-06T16:17:51.223Z,43.13
2022-10-06T16:20:20.763Z,43.59
2022-10-06T16:22:50.241Z,43.57
2022-10-06T16:25:21.094Z,43.39
2022-10-06T16:27:50.728Z,43.94
2022-10-06T16:30:20.288Z,44.09
2022-10-06T16:32:50.108Z,44.61
2022-10-06T16:35:19.852Z,44.63
2022-10-06T16:37:50.056Z,45.20
2022-10-06T16:40:23.055Z,45.19
2022-10-06T16:42:52.685Z,45.14
2022-10-06T16:45:22.230Z,45.61
2022-10-06T16:47:51.780Z,45.63
2022-10-06T16:50:24.694Z,45.50
2022-10-06T16:52:54.501Z,46.15
2022-10-06T16:55:25.761Z,45.96
2022-10-06T16:57:55.315Z,46.02
2022-10-06T17:00:26.001Z,46.52
2022-10-06T17:02:55.587Z,46.58
2022-10-06T17:05:25.335Z,46.93
2022-10-06T17:07:59.027Z,47.64
2022-10-06T17:10:30.234Z,47.89
2022-10-06T17:13:00.687Z,48.25
2022-10-06T17:15:33.474Z,48.23
2022-10-06T17:18:03.551Z,48.55
2022-10-06T17:20:33.322Z,48.35
2022-10-06T17:23:03.637Z,48.21
2022-10-06T17:25:40.748Z,48.12
2022-10-06T17:28:11.224Z,48.37
2022-10-06T17:30:41.233Z,47.99
2022-10-06T17:33:10.827Z,48.06
2022-10-06T17:35:40.353Z,47.62
2022-10-06T17:38:09.941Z,47.83
2022-10-06T17:40:45.128Z,48.04
2022-10-06T17:43:14.740Z,48.43
2022-10-06T17:45:44.308Z,48.27
2022-10-06T17:48:13.859Z,48.14
2022-10-06T17:50:43.572Z,48.23
2022-10-06T17:53:14.678Z,47.42
2022-10-06T17:55:46.577Z,47.14
2022-10-06T17:58:18.660Z,46.89
2022-10-06T18:00:48.968Z,47.07
2022-10-06T18:03:26.407Z,47.09
2022-10-06T18:05:58.931Z,46.98
2022-10-06T18:08:28.491Z,47.43
2022-10-06T18:11:17.044Z,47.08
2022-10-06T18:13:48.034Z,47.81
2022-10-06T18:16:19.138Z,47.38
2022-10-06T18:18:50.143Z,47.81
2022-10-06T18:21:20.913Z,47.56
2022-10-06T18:23:51.129Z,48.05
2022-10-06T18:26:22.417Z,48.21
2022-10-06T18:28:51.964Z,48.67
2022-10-06T18:31:21.582Z,48.83
2022-10-06T18:36:43.286Z,49.70
2022-10-06T18:39:13.697Z,50.44
2022-10-06T18:41:46.259Z,50.15
2022-10-06T18:44:36.036Z,50.75
2022-10-06T18:47:22.927Z,51.32
2022-10-06T18:49:53.080Z,51.42
2022-10-06T18:52:22.832Z,51.00
2022-10-06T18:54:52.528Z,51.17
2022-10-06T18:57:27.742Z,51.35
2022-10-06T18:59:57.583Z,51.06
2022-10-06T19:02:27.295Z,50.76
2022-10-06T19:04:57.152Z,50.92
2022-10-06T19:07:30.975Z,50.99
2022-10-06T19:10:00.806Z,50.78
2022-10-06T19:12:32.293Z,50.24
2022-10-06T19:15:02.160Z,50.15
2022-10-06T19:17:32.286Z,50.23
2022-10-06T19:20:02.326Z,50.59
2022-10-06T19:22:31.901Z,50.82
2022-10-06T19:25:01.410Z,51.06
2022-10-06T19:27:36.410Z,51.19
2022-10-06T19:30:06.715Z,51.12
2022-10-06T19:32:39.589Z,51.19
2022-10-06T19:35:10.590Z,51.53
2022-10-06T19:37:41.348Z,51.38
2022-10-06T19:40:11.600Z,51.29
2022-10-06T19:42:47.661Z,50.49
2022-10-06T19:45:18.179Z,49.79
2022-10-06T19:47:48.016Z,49.69
2022-10-06T19:50:18.039Z,49.84
2022-10-06T19:52:47.632Z,49.75
2022-10-06T19:55:22.912Z,49.27
2022-10-06T19:57:54.059Z,49.40
2022-10-06T20:00:23.682Z,49.76
2022-10-06T20:02:53.537Z,50.01
2022-10-06T20:05:23.093Z,49.59
2022-10-06T20:07:52.775Z,49.29
2022-10-06T20:10:22.670Z,49.17
2022-10-06T20:12:55.718Z,49.01
2022-10-06T20:15:26.042Z,49.22
2022-10-06T20:17:55.745Z,49.47
2022-10-06T20:20:25.277Z,49.38
2022-10-06T20:22:54.815Z,49.35
2022-10-06T20:25:26.439Z,49.24
2022-10-06T20:27:57.517Z,49.25
2022-10-06T20:30:27.166Z,49.50
2022-10-06T20:32:56.814Z,49.02
2022-10-06T20:35:26.321Z,49.24
2022-10-06T20:37:56.027Z,49.57
2022-10-06T20:40:39.731Z,49.74
2022-10-06T20:43:10.587Z,49.71
2022-10-06T20:45:40.135Z,49.40
2022-10-06T20:48:09.917Z,49.83
2022-10-06T20:50:39.433Z,49.44
2022-10-06T20:53:09.643Z,49.37
2022-10-06T20:55:39.725Z,49.40
2022-10-06T20:58:11.433Z,49.27
2022-10-06T21:00:41.181Z,49.44
2022-10-06T21:03:11.186Z,49.57
2022-10-06T21:05:48.526Z,49.44
2022-10-06T21:08:19.380Z,49.90
2022-10-06T21:10:55.996Z,49.33
2022-10-06T21:13:33.480Z,49.29
2022-10-06T21:16:03.646Z,49.83
2022-10-06T21:18:33.668Z,49.92
2022-10-06T21:21:05.177Z,50.09
2022-10-06T21:23:37.698Z,49.78
2022-10-06T21:26:08.441Z,49.95
2022-10-06T21:28:39.661Z,50.05
2022-10-06T21:31:13.094Z,50.18
2022-10-06T21:33:43.496Z,50.10
2022-10-06T21:36:14.871Z,50.33
2022-10-06T21:38:45.517Z,50.59
2022-10-06T21:41:31.870Z,50.28
2022-10-06T21:44:03.464Z,50.51
2022-10-06T21:46:34.317Z,51.01
2022-10-06T21:49:05.030Z,51.49
2022-10-06T21:51:35.942Z,51.68
2022-10-06T21:54:05.544Z,51.45
2022-10-06T21:56:35.154Z,51.70
2022-10-06T21:59:06.642Z,51.75
2022-10-06T22:01:37.728Z,52.15
2022-10-06T22:04:09.000Z,52.28
2022-10-06T22:06:38.598Z,52.53
2022-10-06T22:09:09.549Z,52.82
2022-10-06T22:11:40.787Z,53.25
2022-10-06T22:14:13.771Z,53.75
2022-10-06T22:16:43.671Z,54.12
2022-10-06T22:19:14.199Z,54.01
2022-10-06T22:21:45.095Z,54.81
2022-10-06T22:24:16.034Z,54.89
2022-10-06T22:26:45.854Z,54.75
2022-10-06T22:29:17.815Z,54.79
2022-10-06T22:31:48.040Z,54.54
2022-10-06T22:34:18.742Z,54.80
2022-10-06T22:36:48.308Z,54.74
2022-10-06T22:39:18.007Z,54.55
2022-10-06T22:41:47.569Z,55.00
2022-10-06T22:44:18.472Z,54.74
2022-10-06T22:46:48.073Z,54.76
2022-10-06T22:49:17.743Z,55.21
2022-10-06T22:51:47.742Z,54.79
2022-10-06T22:54:19.148Z,54.68
2022-10-06T22:56:48.837Z,54.82
2022-10-06T22:59:20.032Z,54.60
2022-10-06T23:01:49.807Z,54.70
2022-10-06T23:04:19.430Z,54.43
2022-10-06T23:06:48.975Z,54.65
2022-10-06T23:09:18.527Z,54.61
2022-10-06T23:11:48.804Z,54.72
2022-10-06T23:14:20.440Z,55.10
2022-10-06T23:16:50.429Z,55.07
2022-10-06T23:19:20.038Z,55.57
2022-10-06T23:21:49.781Z,55.32
2022-10-06T23:24:19.321Z,55.17
2022-10-06T23:26:48.854Z,54.97
2022-10-06T23:29:21.425Z,55.20
2022-10-06T23:31:51.114Z,55.26
2022-10-06T23:34:20.818Z,55.22
2022-10-06T23:36:50.758Z,55.23
2022-10-06T23:39:20.302Z,55.25
2022-10-06T23:41:49.865Z,55.36
2022-10-06T23:44:20.751Z,55.68
2022-10-06T23:46:50.313Z,55.91
2022-10-06T23:49:19.998Z,55.65
2022-10-06T23:51:49.441Z,55.51
2022-10-06T23:54:19.091Z,55.58
2022-10-06T23:56:49.466Z,55.71
2022-10-06T23:59:20.654Z,55.47
